sensor_id;sensor_type;location;lat;lon;timestamp;P1;durP1;ratioP1;P2;durP2;ratioP2
10299;SDS011;5195;48.562;9.192;2023-03-01T00:01:32;17.70;;;16.10;;
10299;SDS011;5195;48.562;9.192;2023-03-01T00:04:07;17.97;;;16.37;;
10299;SDS011;5195;48.562;9.192;2023-03-01T00:06:44;18.43;;;16.73;;
10299;SDS011;5195;48.562;9.192;2023-03-01T00:09:22;16.37;;;13.63;;
10299;SDS011;5195;48.562;9.192;2023-03-01T00:11:58;16.85;;;15.35;;
10299;SDS011;5195;48.562;9.192;2023-03-01T00:14:33;14.33;;;12.33;;
10299;SDS011;5195;48.562;9.192;2023-03-01T00:17:09;14.10;;;12.63;;
10299;SDS011;5195;48.562;9.192;2023-03-01T00:19:44;17.45;;;15.85;;
10299;SDS011;5195;48.562;9.192;2023-03-01T00:22:21;17.75;;;16.15;;
10299;SDS011;5195;48.562;9.192;2023-03-01T00:24:56;15.57;;;14.17;;
10299;SDS011;5195;48.562;9.192;2023-03-01T00:27:32;14.70;;;13.17;;
10299;SDS011;5195;48.562;9.192;2023-03-01T00:30:08;14.03;;;12.53;;
10299;SDS011;5195;48.562;9.192;2023-03-01T00:32:43;17.20;;;15.57;;
10299;SDS011;5195;48.562;9.192;2023-03-01T00:35:20;17.52;;;16.02;;
10299;SDS011;5195;48.562;9.192;2023-03-01T00:37:56;17.57;;;15.97;;
10299;SDS011;5195;48.562;9.192;2023-03-01T00:40:32;14.13;;;12.73;;
10299;SDS011;5195;48.562;9.192;2023-03-01T00:43:06;18.63;;;16.73;;
10299;SDS011;5195;48.562;9.192;2023-03-01T00:45:42;17.80;;;16.20;;
10299;SDS011;5195;48.562;9.192;2023-03-01T00:48:18;18.13;;;16.43;;
10299;SDS011;5195;48.562;9.192;2023-03-01T00:50:55;17.90;;;16.30;;
10299;SDS011;5195;48.562;9.192;2023-03-01T00:53:31;14.57;;;13.17;;
10299;SDS011;5195;48.562;9.192;2023-03-01T00:56:07;17.87;;;16.12;;
10299;SDS011;5195;48.562;9.192;2023-03-01T00:58:42;14.33;;;12.93;;
10299;SDS011;5195;48.562;9.192;2023-03-01T01:01:18;15.57;;;12.60;;
10299;SDS011;5195;48.562;9.192;2023-03-01T01:04:09;14.60;;;13.10;;
10299;SDS011;5195;48.562;9.192;2023-03-01T01:06:34;17.70;;;16.03;;
10299;SDS011;5195;48.562;9.192;2023-03-01T01:09:06;15.77;;;13.60;;
10299;SDS011;5195;48.562;9.192;2023-03-01T01:11:31;16.23;;;12.83;;
10299;SDS011;5195;48.562;9.192;2023-03-01T01:13:57;17.43;;;15.83;;
10299;SDS011;5195;48.562;9.192;2023-03-01T01:16:23;18.43;;;16.67;;
10299;SDS011;5195;48.562;9.192;2023-03-01T01:18:48;16.10;;;13.98;;
10299;SDS011;5195;48.562;9.192;2023-03-01T01:21:14;17.85;;;16.17;;
10299;SDS011;5195;48.562;9.192;2023-03-01T01:23:39;14.57;;;13.07;;
10299;SDS011;5195;48.562;9.192;2023-03-01T01:26:20;18.07;;;16.30;;
10299;SDS011;5195;48.562;9.192;2023-03-01T01:28:44;14.90;;;13.40;;
10299;SDS011;5195;48.562;9.192;2023-03-01T01:31:10;18.90;;;17.07;;
10299;SDS011;5195;48.562;9.192;2023-03-01T01:33:36;17.77;;;16.17;;
10299;SDS011;5195;48.562;9.192;2023-03-01T01:36:01;17.92;;;16.27;;
10299;SDS011;5195;48.562;9.192;2023-03-01T01:38:27;14.90;;;13.40;;
10299;SDS011;5195;48.562;9.192;2023-03-01T01:40:54;18.27;;;16.53;;
10299;SDS011;5195;48.562;9.192;2023-03-01T01:43:25;14.87;;;13.57;;
10299;SDS011;5195;48.562;9.192;2023-03-01T01:45:49;14.03;;;12.57;;
10299;SDS011;5195;48.562;9.192;2023-03-01T01:48:16;18.27;;;16.47;;
10299;SDS011;5195;48.562;9.192;2023-03-01T01:50:40;18.08;;;16.48;;
10299;SDS011;5195;48.562;9.192;2023-03-01T01:53:14;17.52;;;16.02;;
10299;SDS011;5195;48.562;9.192;2023-03-01T01:55:37;17.87;;;16.20;;
10299;SDS011;5195;48.562;9.192;2023-03-01T01:58:04;18.15;;;16.55;;
10299;SDS011;5195;48.562;9.192;2023-03-01T02:00:29;15.97;;;14.33;;
10299;SDS011;5195;48.562;9.192;2023-03-01T02:02:59;18.27;;;16.58;;
10299;SDS011;5195;48.562;9.192;2023-03-01T02:05:33;18.48;;;16.77;;
10299;SDS011;5195;48.562;9.192;2023-03-01T02:07:57;14.77;;;13.30;;
10299;SDS011;5195;48.562;9.192;2023-03-01T02:10:23;15.30;;;13.77;;
10299;SDS011;5195;48.562;9.192;2023-03-01T02:12:49;19.50;;;17.63;;
10299;SDS011;5195;48.562;9.192;2023-03-01T02:15:15;19.70;;;17.73;;
10299;SDS011;5195;48.562;9.192;2023-03-01T02:17:40;17.27;;;15.43;;
10299;SDS011;5195;48.562;9.192;2023-03-01T02:20:13;18.70;;;16.80;;
10299;SDS011;5195;48.562;9.192;2023-03-01T02:22:35;17.90;;;16.37;;
10299;SDS011;5195;48.562;9.192;2023-03-01T02:27:51;15.70;;;14.10;;
10299;SDS011;5195;48.562;9.192;2023-03-01T02:30:18;18.57;;;16.83;;
10299;SDS011;5195;48.562;9.192;2023-03-01T02:32:46;19.20;;;17.37;;
10299;SDS011;5195;48.562;9.192;2023-03-01T02:35:12;15.63;;;13.73;;
10299;SDS011;5195;48.562;9.192;2023-03-01T02:37:37;14.63;;;13.20;;
10299;SDS011;5195;48.562;9.192;2023-03-01T02:40:04;15.03;;;13.37;;
10299;SDS011;5195;48.562;9.192;2023-03-01T02:42:33;18.57;;;16.77;;
10299;SDS011;5195;48.562;9.192;2023-03-01T02:44:58;15.87;;;14.20;;
10299;SDS011;5195;48.562;9.192;2023-03-01T02:47:24;14.63;;;13.13;;
10299;SDS011;5195;48.562;9.192;2023-03-01T02:49:49;18.73;;;17.02;;
10299;SDS011;5195;48.562;9.192;2023-03-01T02:55:12;18.77;;;17.00;;
10299;SDS011;5195;48.562;9.192;2023-03-01T02:57:40;19.95;;;18.02;;
10299;SDS011;5195;48.562;9.192;2023-03-01T03:00:06;18.62;;;16.95;;
10299;SDS011;5195;48.562;9.192;2023-03-01T03:02:33;20.60;;;18.80;;
10299;SDS011;5195;48.562;9.192;2023-03-01T03:05:05;16.47;;;14.77;;
10299;SDS011;5195;48.562;9.192;2023-03-01T03:07:30;17.40;;;14.10;;
10299;SDS011;5195;48.562;9.192;2023-03-01T03:09:57;16.00;;;14.30;;
10299;SDS011;5195;48.562;9.192;2023-03-01T03:12:22;16.13;;;13.17;;
10299;SDS011;5195;48.562;9.192;2023-03-01T03:14:49;16.20;;;13.90;;
10299;SDS011;5195;48.562;9.192;2023-03-01T03:17:14;14.83;;;13.27;;
10299;SDS011;5195;48.562;9.192;2023-03-01T03:19:40;15.70;;;13.88;;
10299;SDS011;5195;48.562;9.192;2023-03-01T03:22:06;15.10;;;13.57;;
10299;SDS011;5195;48.562;9.192;2023-03-01T03:24:32;16.73;;;13.87;;
10299;SDS011;5195;48.562;9.192;2023-03-01T03:26:58;19.83;;;18.03;;
10299;SDS011;5195;48.562;9.192;2023-03-01T03:29:24;16.50;;;14.87;;
10299;SDS011;5195;48.562;9.192;2023-03-01T03:31:50;18.47;;;14.80;;
10299;SDS011;5195;48.562;9.192;2023-03-01T03:34:15;15.55;;;13.23;;
10299;SDS011;5195;48.562;9.192;2023-03-01T03:36:41;19.60;;;17.70;;
10299;SDS011;5195;48.562;9.192;2023-03-01T03:39:08;20.35;;;18.42;;
10299;SDS011;5195;48.562;9.192;2023-03-01T03:41:34;16.17;;;14.57;;
10299;SDS011;5195;48.562;9.192;2023-03-01T03:44:00;15.63;;;14.07;;
10299;SDS011;5195;48.562;9.192;2023-03-01T03:46:25;19.87;;;17.98;;
10299;SDS011;5195;48.562;9.192;2023-03-01T03:48:52;21.27;;;19.27;;
10299;SDS011;5195;48.562;9.192;2023-03-01T03:51:17;16.97;;;15.17;;
10299;SDS011;5195;48.562;9.192;2023-03-01T03:53:43;20.17;;;18.27;;
10299;SDS011;5195;48.562;9.192;2023-03-01T03:56:08;15.98;;;14.38;;
10299;SDS011;5195;48.562;9.192;2023-03-01T03:58:34;19.87;;;17.98;;
10299;SDS011;5195;48.562;9.192;2023-03-01T04:01:02;16.10;;;14.57;;
10299;SDS011;5195;48.562;9.192;2023-03-01T04:03:29;16.80;;;13.80;;
10299;SDS011;5195;48.562;9.192;2023-03-01T04:05:54;21.33;;;19.08;;
10299;SDS011;5195;48.562;9.192;2023-03-01T04:08:22;20.55;;;18.65;;
10299;SDS011;5195;48.562;9.192;2023-03-01T04:10:46;21.17;;;19.10;;
10299;SDS011;5195;48.562;9.192;2023-03-01T04:13:11;18.63;;;15.60;;
10299;SDS011;5195;48.562;9.192;2023-03-01T04:15:38;18.60;;;15.93;;
10299;SDS011;5195;48.562;9.192;2023-03-01T04:18:04;22.07;;;19.87;;
10299;SDS011;5195;48.562;9.192;2023-03-01T04:20:30;20.70;;;18.70;;
10299;SDS011;5195;48.562;9.192;2023-03-01T04:23:07;20.62;;;18.77;;
10299;SDS011;5195;48.562;9.192;2023-03-01T04:25:27;20.57;;;16.67;;
10299;SDS011;5195;48.562;9.192;2023-03-01T04:27:53;21.20;;;19.15;;
10299;SDS011;5195;48.562;9.192;2023-03-01T04:30:20;21.42;;;19.30;;
10299;SDS011;5195;48.562;9.192;2023-03-01T04:32:46;17.60;;;15.73;;
10299;SDS011;5195;48.562;9.192;2023-03-01T04:35:11;19.93;;;18.10;;
10299;SDS011;5195;48.562;9.192;2023-03-01T04:37:37;20.58;;;18.52;;
10299;SDS011;5195;48.562;9.192;2023-03-01T04:40:02;16.70;;;14.80;;
10299;SDS011;5195;48.562;9.192;2023-03-01T04:42:31;21.12;;;19.10;;
10299;SDS011;5195;48.562;9.192;2023-03-01T04:44:57;20.52;;;18.52;;
10299;SDS011;5195;48.562;9.192;2023-03-01T04:47:23;17.67;;;15.87;;
10299;SDS011;5195;48.562;9.192;2023-03-01T04:49:49;24.37;;;20.00;;
10299;SDS011;5195;48.562;9.192;2023-03-01T04:52:14;16.50;;;14.60;;
10299;SDS011;5195;48.562;9.192;2023-03-01T04:54:40;16.03;;;13.23;;
10299;SDS011;5195;48.562;9.192;2023-03-01T04:57:06;21.60;;;19.50;;
10299;SDS011;5195;48.562;9.192;2023-03-01T04:59:32;18.13;;;16.23;;
10299;SDS011;5195;48.562;9.192;2023-03-01T05:01:57;22.37;;;20.17;;
10299;SDS011;5195;48.562;9.192;2023-03-01T05:04:23;19.17;;;16.73;;
10299;SDS011;5195;48.562;9.192;2023-03-01T05:06:49;21.97;;;19.77;;
10299;SDS011;5195;48.562;9.192;2023-03-01T05:09:16;20.90;;;18.97;;
10299;SDS011;5195;48.562;9.192;2023-03-01T05:11:41;21.93;;;19.83;;
10299;SDS011;5195;48.562;9.192;2023-03-01T05:14:07;20.62;;;16.77;;
10299;SDS011;5195;48.562;9.192;2023-03-01T05:16:32;17.80;;;15.13;;
10299;SDS011;5195;48.562;9.192;2023-03-01T05:18:59;21.87;;;19.83;;
10299;SDS011;5195;48.562;9.192;2023-03-01T05:21:26;22.57;;;20.37;;
10299;SDS011;5195;48.562;9.192;2023-03-01T05:23:53;22.05;;;19.95;;
10299;SDS011;5195;48.562;9.192;2023-03-01T05:26:19;18.73;;;16.70;;
10299;SDS011;5195;48.562;9.192;2023-03-01T05:28:44;18.27;;;16.37;;
10299;SDS011;5195;48.562;9.192;2023-03-01T05:31:10;18.70;;;15.57;;
10299;SDS011;5195;48.562;9.192;2023-03-01T05:33:37;22.27;;;20.07;;
10299;SDS011;5195;48.562;9.192;2023-03-01T05:36:02;19.10;;;16.60;;
10299;SDS011;5195;48.562;9.192;2023-03-01T05:38:27;21.97;;;19.97;;
10299;SDS011;5195;48.562;9.192;2023-03-01T05:40:53;18.23;;;16.25;;
10299;SDS011;5195;48.562;9.192;2023-03-01T05:43:18;22.62;;;20.33;;
10299;SDS011;5195;48.562;9.192;2023-03-01T05:45:44;24.00;;;18.17;;
10299;SDS011;5195;48.562;9.192;2023-03-01T05:48:11;19.33;;;16.57;;
10299;SDS011;5195;48.562;9.192;2023-03-01T05:50:41;23.05;;;20.75;;
10299;SDS011;5195;48.562;9.192;2023-03-01T05:53:11;26.00;;;23.43;;
10299;SDS011;5195;48.562;9.192;2023-03-01T05:55:39;26.57;;;23.97;;
10299;SDS011;5195;48.562;9.192;2023-03-01T05:58:06;20.67;;;16.93;;
10299;SDS011;5195;48.562;9.192;2023-03-01T06:00:31;20.27;;;16.23;;
10299;SDS011;5195;48.562;9.192;2023-03-01T06:02:58;22.47;;;16.30;;
10299;SDS011;5195;48.562;9.192;2023-03-01T06:05:24;20.00;;;16.67;;
10299;SDS011;5195;48.562;9.192;2023-03-01T06:07:50;22.23;;;20.13;;
10299;SDS011;5195;48.562;9.192;2023-03-01T06:10:16;23.03;;;18.63;;
10299;SDS011;5195;48.562;9.192;2023-03-01T06:12:42;17.85;;;15.95;;
10299;SDS011;5195;48.562;9.192;2023-03-01T06:15:13;39.97;;;25.00;;
10299;SDS011;5195;48.562;9.192;2023-03-01T06:17:36;37.90;;;30.50;;
10299;SDS011;5195;48.562;9.192;2023-03-01T06:20:01;20.30;;;17.05;;
10299;SDS011;5195;48.562;9.192;2023-03-01T06:22:27;24.20;;;21.77;;
10299;SDS011;5195;48.562;9.192;2023-03-01T06:24:52;24.10;;;21.55;;
10299;SDS011;5195;48.562;9.192;2023-03-01T06:27:19;21.23;;;18.98;;
10299;SDS011;5195;48.562;9.192;2023-03-01T06:29:44;22.97;;;20.57;;
10299;SDS011;5195;48.562;9.192;2023-03-01T06:32:10;20.20;;;18.10;;
10299;SDS011;5195;48.562;9.192;2023-03-01T06:34:35;19.33;;;17.23;;
10299;SDS011;5195;48.562;9.192;2023-03-01T06:37:02;20.43;;;16.53;;
10299;SDS011;5195;48.562;9.192;2023-03-01T06:39:28;20.35;;;16.90;;
10299;SDS011;5195;48.562;9.192;2023-03-01T06:41:53;23.17;;;17.92;;
10299;SDS011;5195;48.562;9.192;2023-03-01T06:44:19;26.17;;;23.65;;
10299;SDS011;5195;48.562;9.192;2023-03-01T06:46:44;24.98;;;22.48;;
10299;SDS011;5195;48.562;9.192;2023-03-01T06:49:11;20.73;;;17.83;;
10299;SDS011;5195;48.562;9.192;2023-03-01T06:51:37;24.15;;;21.67;;
10299;SDS011;5195;48.562;9.192;2023-03-01T06:54:07;23.83;;;21.52;;
10299;SDS011;5195;48.562;9.192;2023-03-01T06:56:32;24.63;;;22.17;;
10299;SDS011;5195;48.562;9.192;2023-03-01T06:58:58;24.37;;;21.87;;
10299;SDS011;5195;48.562;9.192;2023-03-01T07:01:23;24.67;;;22.37;;
10299;SDS011;5195;48.562;9.192;2023-03-01T07:03:50;24.15;;;21.67;;
10299;SDS011;5195;48.562;9.192;2023-03-01T07:06:15;20.07;;;17.47;;
10299;SDS011;5195;48.562;9.192;2023-03-01T07:08:42;17.85;;;15.77;;
10299;SDS011;5195;48.562;9.192;2023-03-01T07:11:09;22.50;;;20.30;;
10299;SDS011;5195;48.562;9.192;2023-03-01T07:13:34;19.00;;;17.07;;
10299;SDS011;5195;48.562;9.192;2023-03-01T07:16:00;18.97;;;16.97;;
10299;SDS011;5195;48.562;9.192;2023-03-01T07:18:26;22.23;;;17.17;;
10299;SDS011;5195;48.562;9.192;2023-03-01T07:20:51;17.95;;;16.05;;
10299;SDS011;5195;48.562;9.192;2023-03-01T07:23:17;20.73;;;17.12;;
10299;SDS011;5195;48.562;9.192;2023-03-01T07:25:43;17.93;;;16.07;;
10299;SDS011;5195;48.562;9.192;2023-03-01T07:28:08;22.58;;;20.40;;
10299;SDS011;5195;48.562;9.192;2023-03-01T07:30:35;23.23;;;21.05;;
10299;SDS011;5195;48.562;9.192;2023-03-01T07:33:00;20.47;;;18.27;;
10299;SDS011;5195;48.562;9.192;2023-03-01T07:35:26;24.42;;;21.90;;
10299;SDS011;5195;48.562;9.192;2023-03-01T07:37:52;19.27;;;17.27;;
10299;SDS011;5195;48.562;9.192;2023-03-01T07:40:19;24.30;;;21.90;;
10299;SDS011;5195;48.562;9.192;2023-03-01T07:42:44;29.70;;;26.80;;
10299;SDS011;5195;48.562;9.192;2023-03-01T07:45:10;24.73;;;22.23;;
10299;SDS011;5195;48.562;9.192;2023-03-01T07:47:36;19.90;;;17.87;;
10299;SDS011;5195;48.562;9.192;2023-03-01T07:50:02;18.87;;;16.93;;
10299;SDS011;5195;48.562;9.192;2023-03-01T07:52:28;22.90;;;20.60;;
10299;SDS011;5195;48.562;9.192;2023-03-01T07:54:55;22.77;;;20.62;;
10299;SDS011;5195;48.562;9.192;2023-03-01T07:57:20;20.57;;;18.47;;
10299;SDS011;5195;48.562;9.192;2023-03-01T07:59:46;19.27;;;17.33;;
10299;SDS011;5195;48.562;9.192;2023-03-01T08:02:11;17.60;;;15.77;;
10299;SDS011;5195;48.562;9.192;2023-03-01T08:04:37;21.47;;;18.77;;
10299;SDS011;5195;48.562;9.192;2023-03-01T08:07:04;20.08;;;16.90;;
10299;SDS011;5195;48.562;9.192;2023-03-01T08:09:29;19.47;;;17.27;;
10299;SDS011;5195;48.562;9.192;2023-03-01T08:11:55;18.73;;;16.80;;
10299;SDS011;5195;48.562;9.192;2023-03-01T08:14:20;24.48;;;21.90;;
10299;SDS011;5195;48.562;9.192;2023-03-01T08:16:48;26.90;;;24.20;;
10299;SDS011;5195;48.562;9.192;2023-03-01T08:19:11;23.83;;;21.62;;
10299;SDS011;5195;48.562;9.192;2023-03-01T08:21:37;23.97;;;21.67;;
10299;SDS011;5195;48.562;9.192;2023-03-01T08:24:03;20.20;;;18.00;;
10299;SDS011;5195;48.562;9.192;2023-03-01T08:26:29;22.10;;;20.20;;
10299;SDS011;5195;48.562;9.192;2023-03-01T08:28:55;24.50;;;22.20;;
10299;SDS011;5195;48.562;9.192;2023-03-01T08:31:28;24.40;;;22.10;;
10299;SDS011;5195;48.562;9.192;2023-03-01T08:33:55;24.00;;;21.90;;
10299;SDS011;5195;48.562;9.192;2023-03-01T08:36:23;23.90;;;21.53;;
10299;SDS011;5195;48.562;9.192;2023-03-01T08:38:55;22.75;;;20.55;;
10299;SDS011;5195;48.562;9.192;2023-03-01T08:41:21;22.77;;;20.50;;
10299;SDS011;5195;48.562;9.192;2023-03-01T08:43:47;23.80;;;21.50;;
10299;SDS011;5195;48.562;9.192;2023-03-01T08:46:12;19.98;;;17.98;;
10299;SDS011;5195;48.562;9.192;2023-03-01T08:48:38;18.33;;;16.57;;
10299;SDS011;5195;48.562;9.192;2023-03-01T08:51:11;22.48;;;20.37;;
10299;SDS011;5195;48.562;9.192;2023-03-01T08:53:32;22.73;;;20.70;;
10299;SDS011;5195;48.562;9.192;2023-03-01T08:55:59;22.02;;;20.05;;
10299;SDS011;5195;48.562;9.192;2023-03-01T08:58:23;27.90;;;25.20;;
10299;SDS011;5195;48.562;9.192;2023-03-01T09:00:50;20.20;;;18.13;;
10299;SDS011;5195;48.562;9.192;2023-03-01T09:03:17;18.45;;;16.60;;
10299;SDS011;5195;48.562;9.192;2023-03-01T09:05:43;22.48;;;20.45;;
10299;SDS011;5195;48.562;9.192;2023-03-01T09:08:09;23.60;;;21.20;;
10299;SDS011;5195;48.562;9.192;2023-03-01T09:10:37;21.92;;;20.00;;
10299;SDS011;5195;48.562;9.192;2023-03-01T09:13:00;22.40;;;20.30;;
10299;SDS011;5195;48.562;9.192;2023-03-01T09:15:26;22.37;;;20.47;;
10299;SDS011;5195;48.562;9.192;2023-03-01T09:17:52;20.58;;;18.37;;
10299;SDS011;5195;48.562;9.192;2023-03-01T09:20:19;22.80;;;20.73;;
10299;SDS011;5195;48.562;9.192;2023-03-01T09:22:45;19.93;;;17.33;;
10299;SDS011;5195;48.562;9.192;2023-03-01T09:25:10;19.07;;;17.17;;
10299;SDS011;5195;48.562;9.192;2023-03-01T09:27:37;18.80;;;16.37;;
10299;SDS011;5195;48.562;9.192;2023-03-01T09:30:03;19.13;;;17.10;;
10299;SDS011;5195;48.562;9.192;2023-03-01T09:32:30;18.73;;;16.77;;
10299;SDS011;5195;48.562;9.192;2023-03-01T09:34:55;18.97;;;16.87;;
10299;SDS011;5195;48.562;9.192;2023-03-01T09:37:27;18.40;;;15.83;;
10299;SDS011;5195;48.562;9.192;2023-03-01T09:39:53;23.53;;;21.30;;
10299;SDS011;5195;48.562;9.192;2023-03-01T09:42:18;18.98;;;17.17;;
10299;SDS011;5195;48.562;9.192;2023-03-01T09:47:19;24.55;;;22.20;;
10299;SDS011;5195;48.562;9.192;2023-03-01T09:49:41;22.70;;;20.40;;
10299;SDS011;5195;48.562;9.192;2023-03-01T09:54:54;19.27;;;17.37;;
10299;SDS011;5195;48.562;9.192;2023-03-01T09:57:19;22.15;;;20.15;;
10299;SDS011;5195;48.562;9.192;2023-03-01T10:00:36;18.92;;;17.12;;
10299;SDS011;5195;48.562;9.192;2023-03-01T10:02:25;22.67;;;20.55;;
10299;SDS011;5195;48.562;9.192;2023-03-01T10:04:50;22.05;;;20.10;;
10299;SDS011;5195;48.562;9.192;2023-03-01T10:07:25;19.37;;;17.60;;
10299;SDS011;5195;48.562;9.192;2023-03-01T10:10:07;22.67;;;20.60;;
10299;SDS011;5195;48.562;9.192;2023-03-01T10:12:34;24.00;;;20.37;;
10299;SDS011;5195;48.562;9.192;2023-03-01T10:18:00;21.42;;;19.55;;
10299;SDS011;5195;48.562;9.192;2023-03-01T10:20:57;19.70;;;17.60;;
10299;SDS011;5195;48.562;9.192;2023-03-01T10:23:10;20.17;;;17.63;;
10299;SDS011;5195;48.562;9.192;2023-03-01T10:30:50;23.12;;;21.02;;
10299;SDS011;5195;48.562;9.192;2023-03-01T10:33:23;21.90;;;20.00;;
10299;SDS011;5195;48.562;9.192;2023-03-01T10:35:48;20.60;;;18.60;;
10299;SDS011;5195;48.562;9.192;2023-03-01T10:38:14;24.50;;;21.97;;
10299;SDS011;5195;48.562;9.192;2023-03-01T10:41:16;21.37;;;19.58;;
10299;SDS011;5195;48.562;9.192;2023-03-01T10:43:27;22.03;;;20.13;;
10299;SDS011;5195;48.562;9.192;2023-03-01T10:45:54;20.73;;;18.77;;
10299;SDS011;5195;48.562;9.192;2023-03-01T10:48:21;19.47;;;17.47;;
10299;SDS011;5195;48.562;9.192;2023-03-01T10:50:48;18.55;;;16.70;;
10299;SDS011;5195;48.562;9.192;2023-03-01T10:53:24;19.63;;;17.77;;
10299;SDS011;5195;48.562;9.192;2023-03-01T10:55:48;18.33;;;16.57;;
10299;SDS011;5195;48.562;9.192;2023-03-01T10:58:18;20.80;;;18.80;;
10299;SDS011;5195;48.562;9.192;2023-03-01T11:00:50;18.77;;;16.77;;
10299;SDS011;5195;48.562;9.192;2023-03-01T11:03:27;17.87;;;16.10;;
10299;SDS011;5195;48.562;9.192;2023-03-01T11:06:02;20.30;;;18.45;;
10299;SDS011;5195;48.562;9.192;2023-03-01T11:08:32;19.30;;;17.70;;
10299;SDS011;5195;48.562;9.192;2023-03-01T11:13:34;18.17;;;16.00;;
10299;SDS011;5195;48.562;9.192;2023-03-01T11:16:05;17.70;;;15.95;;
10299;SDS011;5195;48.562;9.192;2023-03-01T11:18:29;17.97;;;16.17;;
10299;SDS011;5195;48.562;9.192;2023-03-01T11:20:54;17.90;;;16.30;;
10299;SDS011;5195;48.562;9.192;2023-03-01T11:23:20;17.73;;;15.93;;
10299;SDS011;5195;48.562;9.192;2023-03-01T11:25:54;20.83;;;18.97;;
10299;SDS011;5195;48.562;9.192;2023-03-01T11:28:22;18.67;;;17.07;;
10299;SDS011;5195;48.562;9.192;2023-03-01T11:30:59;18.40;;;16.60;;
10299;SDS011;5195;48.562;9.192;2023-03-01T11:36:32;19.63;;;17.83;;
10299;SDS011;5195;48.562;9.192;2023-03-01T11:38:56;19.67;;;17.97;;
10299;SDS011;5195;48.562;9.192;2023-03-01T11:41:27;21.03;;;19.13;;
10299;SDS011;5195;48.562;9.192;2023-03-01T11:44:02;19.13;;;17.37;;
10299;SDS011;5195;48.562;9.192;2023-03-01T11:46:30;19.52;;;17.92;;
10299;SDS011;5195;48.562;9.192;2023-03-01T11:51:59;18.85;;;17.17;;
10299;SDS011;5195;48.562;9.192;2023-03-01T11:54:25;18.58;;;17.05;;
10299;SDS011;5195;48.562;9.192;2023-03-01T11:56:47;18.13;;;16.17;;
10299;SDS011;5195;48.562;9.192;2023-03-01T12:08:07;15.60;;;14.20;;
10299;SDS011;5195;48.562;9.192;2023-03-01T12:16:45;18.10;;;16.50;;
10299;SDS011;5195;48.562;9.192;2023-03-01T12:19:08;17.65;;;16.15;;
10299;SDS011;5195;48.562;9.192;2023-03-01T12:22:07;15.73;;;14.33;;
10299;SDS011;5195;48.562;9.192;2023-03-01T12:25:49;15.50;;;13.97;;
10299;SDS011;5195;48.562;9.192;2023-03-01T12:51:34;15.47;;;13.97;;
10299;SDS011;5195;48.562;9.192;2023-03-01T12:54:00;14.57;;;13.18;;
10299;SDS011;5195;48.562;9.192;2023-03-01T12:56:27;14.87;;;13.50;;
10299;SDS011;5195;48.562;9.192;2023-03-01T12:59:01;14.67;;;13.30;;
10299;SDS011;5195;48.562;9.192;2023-03-01T13:01:30;16.47;;;15.00;;
10299;SDS011;5195;48.562;9.192;2023-03-01T13:06:46;16.37;;;14.83;;
10299;SDS011;5195;48.562;9.192;2023-03-01T13:11:50;16.60;;;15.00;;
10299;SDS011;5195;48.562;9.192;2023-03-01T13:16:45;16.33;;;14.73;;
10299;SDS011;5195;48.562;9.192;2023-03-01T13:19:13;19.00;;;17.30;;
10299;SDS011;5195;48.562;9.192;2023-03-01T13:21:37;17.37;;;15.77;;
10299;SDS011;5195;48.562;9.192;2023-03-01T13:24:02;19.48;;;17.77;;
10299;SDS011;5195;48.562;9.192;2023-03-01T13:26:29;17.13;;;15.57;;
10299;SDS011;5195;48.562;9.192;2023-03-01T13:28:57;18.10;;;16.50;;
10299;SDS011;5195;48.562;9.192;2023-03-01T13:33:58;16.87;;;15.20;;
10299;SDS011;5195;48.562;9.192;2023-03-01T13:46:59;18.27;;;16.67;;
10299;SDS011;5195;48.562;9.192;2023-03-01T13:49:27;16.35;;;14.75;;
10299;SDS011;5195;48.562;9.192;2023-03-01T13:51:52;18.08;;;16.48;;
10299;SDS011;5195;48.562;9.192;2023-03-01T13:54:28;18.50;;;17.00;;
10299;SDS011;5195;48.562;9.192;2023-03-01T13:56:52;16.40;;;14.70;;
10299;SDS011;5195;48.562;9.192;2023-03-01T13:59:18;16.25;;;14.57;;
10299;SDS011;5195;48.562;9.192;2023-03-01T14:01:43;16.07;;;14.50;;
10299;SDS011;5195;48.562;9.192;2023-03-01T14:04:25;16.63;;;14.77;;
10299;SDS011;5195;48.562;9.192;2023-03-01T14:06:48;18.07;;;16.47;;
10299;SDS011;5195;48.562;9.192;2023-03-01T14:09:24;16.97;;;15.27;;
10299;SDS011;5195;48.562;9.192;2023-03-01T14:14:57;17.37;;;15.77;;
10299;SDS011;5195;48.562;9.192;2023-03-01T14:22:45;17.70;;;16.00;;
10299;SDS011;5195;48.562;9.192;2023-03-01T14:27:51;16.03;;;14.47;;
10299;SDS011;5195;48.562;9.192;2023-03-01T14:30:19;17.37;;;15.73;;
10299;SDS011;5195;48.562;9.192;2023-03-01T14:32:42;18.20;;;16.58;;
10299;SDS011;5195;48.562;9.192;2023-03-01T14:35:19;17.90;;;16.30;;
10299;SDS011;5195;48.562;9.192;2023-03-01T14:37:43;15.33;;;13.97;;
10299;SDS011;5195;48.562;9.192;2023-03-01T14:40:19;17.10;;;15.60;;
10299;SDS011;5195;48.562;9.192;2023-03-01T14:42:36;14.60;;;13.20;;
10299;SDS011;5195;48.562;9.192;2023-03-01T14:45:02;15.07;;;13.55;;
10299;SDS011;5195;48.562;9.192;2023-03-01T14:47:32;16.33;;;14.90;;
10299;SDS011;5195;48.562;9.192;2023-03-01T14:49:57;16.77;;;15.27;;
10299;SDS011;5195;48.562;9.192;2023-03-01T14:52:22;15.03;;;13.63;;
10299;SDS011;5195;48.562;9.192;2023-03-01T14:54:52;14.98;;;13.65;;
10299;SDS011;5195;48.562;9.192;2023-03-01T14:57:22;16.70;;;15.20;;
10299;SDS011;5195;48.562;9.192;2023-03-01T14:59:51;14.43;;;13.17;;
10299;SDS011;5195;48.562;9.192;2023-03-01T15:02:17;14.40;;;13.07;;
10299;SDS011;5195;48.562;9.192;2023-03-01T15:04:43;14.33;;;13.00;;
10299;SDS011;5195;48.562;9.192;2023-03-01T15:07:09;15.23;;;13.53;;
10299;SDS011;5195;48.562;9.192;2023-03-01T15:09:34;17.17;;;15.68;;
10299;SDS011;5195;48.562;9.192;2023-03-01T15:11:59;17.07;;;14.53;;
10299;SDS011;5195;48.562;9.192;2023-03-01T15:14:41;17.92;;;16.45;;
10299;SDS011;5195;48.562;9.192;2023-03-01T15:17:04;16.00;;;14.40;;
10299;SDS011;5195;48.562;9.192;2023-03-01T15:19:30;14.80;;;13.37;;
10299;SDS011;5195;48.562;9.192;2023-03-01T15:21:55;17.45;;;15.75;;
10299;SDS011;5195;48.562;9.192;2023-03-01T15:24:24;16.30;;;14.77;;
10299;SDS011;5195;48.562;9.192;2023-03-01T15:29:25;18.00;;;16.40;;
10299;SDS011;5195;48.562;9.192;2023-03-01T15:31:56;16.20;;;14.48;;
10299;SDS011;5195;48.562;9.192;2023-03-01T15:34:21;16.60;;;14.93;;
10299;SDS011;5195;48.562;9.192;2023-03-01T15:36:49;18.75;;;16.87;;
10299;SDS011;5195;48.562;9.192;2023-03-01T15:42:08;19.20;;;17.30;;
10299;SDS011;5195;48.562;9.192;2023-03-01T15:44:34;19.13;;;17.43;;
10299;SDS011;5195;48.562;9.192;2023-03-01T15:46:58;17.33;;;15.57;;
10299;SDS011;5195;48.562;9.192;2023-03-01T15:49:38;18.52;;;16.90;;
10299;SDS011;5195;48.562;9.192;2023-03-01T15:52:03;19.23;;;17.47;;
10299;SDS011;5195;48.562;9.192;2023-03-01T15:54:28;16.37;;;14.77;;
10299;SDS011;5195;48.562;9.192;2023-03-01T15:56:54;17.47;;;16.00;;
10299;SDS011;5195;48.562;9.192;2023-03-01T15:59:19;18.35;;;16.75;;
10299;SDS011;5195;48.562;9.192;2023-03-01T16:01:46;18.50;;;16.83;;
10299;SDS011;5195;48.562;9.192;2023-03-01T16:04:14;20.30;;;16.55;;
10299;SDS011;5195;48.562;9.192;2023-03-01T16:06:39;17.83;;;16.03;;
10299;SDS011;5195;48.562;9.192;2023-03-01T16:09:05;18.03;;;16.33;;
10299;SDS011;5195;48.562;9.192;2023-03-01T16:11:30;14.60;;;13.30;;
10299;SDS011;5195;48.562;9.192;2023-03-01T16:13:56;16.60;;;14.70;;
10299;SDS011;5195;48.562;9.192;2023-03-01T16:16:22;15.60;;;14.00;;
10299;SDS011;5195;48.562;9.192;2023-03-01T16:18:48;18.77;;;16.97;;
10299;SDS011;5195;48.562;9.192;2023-03-01T16:21:23;18.37;;;16.58;;